createdAt,value
2023-01-09T00:01:30.621Z,99004.91
2023-01-09T00:03:59.188Z,99037.25
2023-01-09T00:06:27.528Z,99016.91
2023-01-09T00:08:55.672Z,99037.25
2023-01-09T00:11:24.238Z,99037.25
2023-01-09T00:13:52.394Z,99040.94
2023-01-09T00:16:22.328Z,99028.53
2023-01-09T00:18:50.603Z,99031.03
2023-01-09T00:21:18.701Z,99020.34
2023-01-09T00:23:46.909Z,99023.84
2023-01-09T00:26:17.948Z,98994.84
2023-01-09T00:28:47.120Z,99026.53
2023-01-09T00:31:15.776Z,98979.50
2023-01-09T00:33:47.648Z,99018.50
2023-01-09T00:36:15.768Z,99022.00
2023-01-09T00:38:43.868Z,99000.50
2023-01-09T00:41:15.395Z,99015.81
2023-01-09T00:43:48.038Z,99014.16
2023-01-09T00:46:18.189Z,99010.47
2023-01-09T00:48:50.608Z,99011.47
2023-01-09T00:51:21.038Z,99000.81
2023-01-09T00:53:50.470Z,99007.97
2023-01-09T00:56:20.675Z,99010.47
2023-01-09T00:58:49.789Z,98995.09
2023-01-09T01:01:18.028Z,99002.44
2023-01-09T01:03:47.584Z,98958.78
2023-01-09T01:06:33.027Z,99009.63
2023-01-09T01:09:01.496Z,99007.78
2023-01-09T01:11:29.568Z,98985.81
2023-01-09T01:13:57.696Z,99005.09
2023-01-09T01:16:26.099Z,98965.44
2023-01-09T01:18:55.863Z,99010.47
2023-01-09T01:21:23.977Z,99007.78
2023-01-09T01:23:52.105Z,99005.09
2023-01-09T01:26:20.322Z,99008.81
2023-01-09T01:28:48.946Z,99003.44
2023-01-09T01:31:18.937Z,99003.44
2023-01-09T01:33:47.056Z,98998.09
2023-01-09T01:36:18.119Z,98998.09
2023-01-09T01:38:47.439Z,98996.41
2023-01-09T01:41:29.588Z,98990.06
2023-01-09T01:43:59.446Z,98981.81
2023-01-09T01:46:27.918Z,98983.69
2023-01-09T01:49:01.337Z,98981.00
2023-01-09T01:51:34.964Z,98962.84
2023-01-09T01:54:07.858Z,98975.66
2023-01-09T01:56:39.161Z,98983.69
2023-01-09T01:59:11.352Z,98958.34
2023-01-09T02:01:42.271Z,98973.69
2023-01-09T02:04:11.282Z,98979.53
2023-01-09T02:06:42.091Z,98982.03
2023-01-09T02:09:10.550Z,98937.66
2023-01-09T02:11:38.682Z,98952.03
2023-01-09T02:14:07.143Z,98975.00
2023-01-09T02:16:48.075Z,98965.97
2023-01-09T02:19:38.038Z,98966.78
2023-01-09T02:22:15.153Z,98960.63
2023-01-09T02:25:02.683Z,98909.56
2023-01-09T02:28:00.268Z,98949.50
2023-01-09T02:30:38.488Z,98954.88
2023-01-09T02:33:21.988Z,98954.88
2023-01-09T02:36:10.050Z,98954.88
2023-01-09T02:38:47.708Z,98926.56
2023-01-09T02:41:21.828Z,98956.91
2023-01-09T02:43:49.991Z,98947.84
2023-01-09T02:46:23.603Z,98925.25
2023-01-09T02:48:54.097Z,98961.25
2023-01-09T02:51:34.168Z,98958.56
2023-01-09T02:54:23.968Z,98956.91
2023-01-09T02:57:12.535Z,98955.88
2023-01-09T02:59:55.213Z,98961.41
2023-01-09T03:02:43.329Z,98959.59
2023-01-09T03:05:20.402Z,98930.47
2023-01-09T03:07:57.271Z,98956.91
2023-01-09T03:10:29.926Z,98919.56
2023-01-09T03:13:00.867Z,98939.19
2023-01-09T03:15:36.437Z,98948.22
2023-01-09T03:18:09.411Z,98923.22
2023-01-09T03:20:39.813Z,98942.50
2023-01-09T03:23:09.165Z,98942.50
2023-01-09T03:25:37.315Z,98946.03
2023-01-09T03:28:07.429Z,98944.16
2023-01-09T03:30:37.301Z,98944.16
2023-01-09T03:33:06.782Z,98951.19
2023-01-09T03:35:34.849Z,98947.69
2023-01-09T03:38:03.020Z,98951.19
2023-01-09T03:40:31.166Z,98946.84
2023-01-09T03:42:59.253Z,98944.16
2023-01-09T03:45:27.396Z,98940.84
2023-01-09T03:47:57.474Z,98909.19
2023-01-09T03:50:26.940Z,98933.00
2023-01-09T03:52:55.018Z,98931.78
2023-01-09T03:55:23.074Z,98925.50
2023-01-09T03:57:52.833Z,98938.81
2023-01-09T04:00:21.747Z,98938.81
2023-01-09T04:02:49.887Z,98949.50
2023-01-09T04:05:18.352Z,98954.88
2023-01-09T04:07:47.855Z,98949.50
2023-01-09T04:10:16.036Z,98939.19
2023-01-09T04:12:44.260Z,98896.81
2023-01-09T04:15:13.173Z,98926.44
2023-01-09T04:17:41.421Z,98915.72
2023-01-09T04:20:11.175Z,98917.38
2023-01-09T04:22:39.364Z,98887.06
2023-01-09T04:25:09.894Z,98912.03
2023-01-09T04:27:38.285Z,98905.84
2023-01-09T04:30:07.591Z,98899.22
2023-01-09T04:32:35.661Z,98905.00
2023-01-09T04:35:03.774Z,98892.78
2023-01-09T04:37:31.854Z,98915.72
2023-01-09T04:39:59.935Z,98925.41
2023-01-09T04:42:29.403Z,98921.06
2023-01-09T04:44:57.494Z,98919.44
2023-01-09T04:47:25.596Z,98918.41
2023-01-09T04:49:53.665Z,98926.44
2023-01-09T04:52:21.769Z,98919.44
2023-01-09T04:54:49.885Z,98930.13
2023-01-09T04:57:18.317Z,98930.13
2023-01-09T04:59:47.904Z,98919.44
2023-01-09T05:02:16.014Z,98911.78
2023-01-09T05:04:44.126Z,98925.59
2023-01-09T05:07:12.221Z,98917.78
2023-01-09T05:09:40.283Z,98901.28
2023-01-09T05:12:08.635Z,98933.44
2023-01-09T05:14:36.809Z,98928.09
2023-01-09T05:17:06.329Z,98919.06
2023-01-09T05:19:34.680Z,98883.41
2023-01-09T05:22:02.870Z,98933.44
2023-01-09T05:24:30.960Z,98929.78
2023-01-09T05:26:59.028Z,98929.78
2023-01-09T05:29:27.183Z,98907.78
2023-01-09T05:31:55.387Z,98918.03
2023-01-09T05:34:25.537Z,98914.78
2023-01-09T05:36:53.776Z,98929.78
2023-01-09T05:39:21.833Z,98923.75
2023-01-09T05:41:49.870Z,98914.78
2023-01-09T05:44:18.114Z,98937.81
2023-01-09T05:46:46.220Z,98942.16
2023-01-09T05:49:14.341Z,98936.78
2023-01-09T05:51:43.792Z,98931.44
2023-01-09T05:54:11.974Z,98915.13
2023-01-09T05:56:40.460Z,98942.16
2023-01-09T05:59:08.537Z,98938.63
2023-01-09T06:01:36.658Z,98929.78
2023-01-09T06:04:04.926Z,98932.47
2023-01-09T06:06:33.103Z,98939.47
2023-01-09T06:09:03.815Z,98936.78
2023-01-09T06:11:31.917Z,98936.13
2023-01-09T06:14:00.065Z,98935.13
2023-01-09T06:16:28.202Z,98935.13
2023-01-09T06:18:56.350Z,98936.78
2023-01-09T06:21:24.435Z,98906.44
2023-01-09T06:23:52.559Z,98921.44
2023-01-09T06:26:22.039Z,98932.47
2023-01-09T06:28:50.226Z,98935.75
2023-01-09T06:31:18.402Z,98933.09
2023-01-09T06:33:46.458Z,98893.50
2023-01-09T06:36:14.502Z,98879.50
2023-01-09T06:38:42.889Z,98923.41
2023-01-09T06:41:12.327Z,98904.44
2023-01-09T06:43:41.792Z,98922.72
2023-01-09T06:46:09.996Z,98915.38
2023-01-09T06:48:38.331Z,98919.06
2023-01-09T06:51:06.835Z,98907.50
2023-01-09T06:53:35.208Z,98908.34
2023-01-09T06:56:03.695Z,98913.72
2023-01-09T06:58:33.261Z,98907.50
2023-01-09T07:01:02.901Z,98908.34
2023-01-09T07:03:33.030Z,98908.34
2023-01-09T07:06:01.980Z,98873.91
2023-01-09T07:08:30.328Z,98876.72
2023-01-09T07:10:59.238Z,98913.53
2023-01-09T07:13:27.257Z,98897.69
2023-01-09T07:15:55.555Z,98919.06
2023-01-09T07:18:25.115Z,98906.66
2023-01-09T07:20:53.269Z,98906.66
2023-01-09T07:23:21.467Z,98883.72
2023-01-09T07:25:52.632Z,98875.41
2023-01-09T07:28:20.935Z,98875.53
2023-01-09T07:30:49.019Z,98902.34
2023-01-09T07:33:17.288Z,98910.84
2023-01-09T07:35:46.993Z,98905.50
2023-01-09T07:38:15.075Z,98900.94
2023-01-09T07:40:43.120Z,98899.31
2023-01-09T07:43:11.353Z,98897.66
2023-01-09T07:45:39.533Z,98893.94
2023-01-09T07:48:08.025Z,98879.91
2023-01-09T07:50:36.099Z,98893.94
2023-01-09T07:53:05.637Z,98892.28
2023-01-09T07:55:33.776Z,98884.25
2023-01-09T07:58:01.837Z,98886.94
2023-01-09T08:00:32.382Z,98876.22
2023-01-09T08:03:01.162Z,98882.38
2023-01-09T08:05:29.478Z,98881.56
2023-01-09T08:07:57.562Z,98877.03
2023-01-09T08:10:27.188Z,98881.56
2023-01-09T08:12:55.379Z,98884.88
2023-01-09T08:15:23.719Z,98884.88
2023-01-09T08:17:52.075Z,98881.09
2023-01-09T08:20:20.405Z,98899.31
2023-01-09T08:22:50.842Z,98888.59
2023-01-09T08:25:19.725Z,98894.78
2023-01-09T08:27:49.485Z,98888.59
2023-01-09T08:30:18.689Z,98863.97
2023-01-09T08:32:51.029Z,98901.97
2023-01-09T08:35:19.352Z,98898.47
2023-01-09T08:37:48.171Z,98910.00
2023-01-09T08:40:17.350Z,98910.00
2023-01-09T08:43:02.913Z,98901.97
2023-01-09T08:45:50.051Z,98910.00
2023-01-09T08:48:18.412Z,98900.38
2023-01-09T08:50:46.843Z,98908.34
2023-01-09T08:53:15.600Z,98904.66
2023-01-09T08:55:43.762Z,98908.34
2023-01-09T08:58:12.069Z,98905.69
2023-01-09T09:00:41.599Z,98897.66
2023-01-09T09:03:12.543Z,98893.94
2023-01-09T09:05:40.658Z,98887.75
2023-01-09T09:08:08.695Z,98894.97
2023-01-09T09:10:36.943Z,98881.56
2023-01-09T09:13:05.082Z,98855.31
2023-01-09T09:15:34.610Z,98878.72
2023-01-09T09:18:05.399Z,98875.19
2023-01-09T09:20:35.461Z,98872.53
2023-01-09T09:23:03.706Z,98871.69
2023-01-09T09:25:32.528Z,98883.22
2023-01-09T09:28:01.350Z,98860.16
2023-01-09T09:30:29.854Z,98842.91
2023-01-09T09:32:58.041Z,98845.91
2023-01-09T09:35:28.629Z,98865.50
2023-01-09T09:37:58.592Z,98859.50
2023-01-09T09:40:48.467Z,98860.97
2023-01-09T09:43:51.971Z,98857.47
2023-01-09T09:46:32.893Z,98859.31
2023-01-09T09:49:07.717Z,98853.13
2023-01-09T09:51:58.138Z,98860.16
2023-01-09T09:54:32.560Z,98869.19
2023-01-09T09:57:04.937Z,98858.28
2023-01-09T09:59:36.953Z,98827.50
2023-01-09T10:02:24.001Z,98858.09
2023-01-09T10:04:58.402Z,98856.47
2023-01-09T10:07:32.593Z,98860.78
2023-01-09T10:10:05.171Z,98800.22
2023-01-09T10:12:37.188Z,98851.09
2023-01-09T10:15:17.308Z,98819.47
2023-01-09T10:17:57.086Z,98836.13
2023-01-09T10:20:51.914Z,98851.09
2023-01-09T10:23:48.425Z,98848.41
2023-01-09T10:26:23.055Z,98848.59
2023-01-09T10:29:15.337Z,98835.03
2023-01-09T10:31:54.897Z,98842.41
2023-01-09T10:34:34.133Z,98838.72
2023-01-09T10:37:10.171Z,98849.44
2023-01-09T10:39:44.764Z,98824.78
2023-01-09T10:42:23.090Z,98817.84
2023-01-09T10:44:58.147Z,98853.13
2023-01-09T10:47:30.608Z,98853.13
2023-01-09T10:50:00.107Z,98851.47
2023-01-09T10:52:36.528Z,98838.72
2023-01-09T10:55:19.304Z,98837.06
2023-01-09T10:57:51.462Z,98835.41
2023-01-09T11:00:23.368Z,98836.06
2023-01-09T11:02:53.970Z,98847.75
2023-01-09T11:05:23.855Z,98843.06
2023-01-09T11:07:56.729Z,98844.09
2023-01-09T11:10:46.359Z,98827.09
2023-01-09T11:13:19.133Z,98809.50
2023-01-09T11:15:47.371Z,98803.47
2023-01-09T11:18:22.083Z,98844.09
2023-01-09T11:20:50.215Z,98833.38
2023-01-09T11:23:27.480Z,98815.78
2023-01-09T11:25:58.797Z,98791.78
2023-01-09T11:28:27.125Z,98845.75
2023-01-09T11:30:59.816Z,98850.06
2023-01-09T11:33:30.250Z,98822.09
2023-01-09T11:36:06.165Z,98840.38
2023-01-09T11:38:48.755Z,98827.47
2023-01-09T11:41:22.327Z,98837.06
2023-01-09T11:43:52.483Z,98841.22
2023-01-09T11:46:39.559Z,98836.69
2023-01-09T11:49:23.119Z,98837.72
2023-01-09T11:52:15.510Z,98840.38
2023-01-09T11:54:48.789Z,98840.38
2023-01-09T11:57:18.710Z,98824.69
2023-01-09T11:59:46.879Z,98820.97
2023-01-09T12:02:36.743Z,98819.25
2023-01-09T12:05:19.661Z,98808.78
2023-01-09T12:07:59.828Z,98827.38
2023-01-09T12:10:53.454Z,98831.06
2023-01-09T12:13:39.654Z,98825.78
2023-01-09T12:16:15.775Z,98830.03
2023-01-09T12:19:00.863Z,98792.16
2023-01-09T12:21:35.063Z,98849.81
2023-01-09T12:24:35.049Z,98839.09
2023-01-09T12:27:17.524Z,98838.25
2023-01-09T12:30:12.016Z,98839.47
2023-01-09T12:32:55.350Z,98843.78
2023-01-09T12:35:34.892Z,98851.63
2023-01-09T12:38:15.416Z,98816.50
2023-01-09T12:41:12.216Z,98844.44
2023-01-09T12:43:48.386Z,98850.84
2023-01-09T12:46:21.104Z,98856.81
2023-01-09T12:49:07.888Z,98849.81
2023-01-09T12:51:38.898Z,98848.97
2023-01-09T12:54:15.394Z,98847.94
2023-01-09T12:56:49.739Z,98846.47
2023-01-09T12:59:32.642Z,98853.50
2023-01-09T13:02:13.188Z,98844.81
2023-01-09T13:04:47.369Z,98821.81
2023-01-09T13:07:19.341Z,98840.19
2023-01-09T13:09:51.992Z,98858.03
2023-01-09T13:12:23.411Z,98855.16
2023-01-09T13:14:57.312Z,98850.63
2023-01-09T13:17:31.602Z,98858.88
2023-01-09T13:20:00.053Z,98869.09
2023-01-09T13:22:30.532Z,98870.28
2023-01-09T13:25:31.044Z,98861.59
2023-01-09T13:28:03.869Z,98858.91
2023-01-09T13:31:05.277Z,98847.91
2023-01-09T13:33:38.616Z,98858.25
2023-01-09T13:36:07.484Z,98861.97
2023-01-09T13:38:39.631Z,98862.81
2023-01-09T13:41:32.575Z,98871.81
2023-01-09T13:44:03.063Z,98871.38
2023-01-09T13:46:40.503Z,98871.00
2023-01-09T13:49:33.959Z,98873.69
2023-01-09T13:52:05.083Z,98880.69
2023-01-09T13:55:08.485Z,98879.66
2023-01-09T13:57:38.610Z,98884.56
2023-01-09T14:00:41.493Z,98879.66
2023-01-09T14:03:22.982Z,98882.34
2023-01-09T14:06:17.709Z,98880.69
2023-01-09T14:08:48.564Z,98890.38
2023-01-09T14:11:29.227Z,98879.41
2023-01-09T14:14:07.005Z,98897.41
2023-01-09T14:16:38.409Z,98899.06
2023-01-09T14:19:19.895Z,98847.91
2023-01-09T14:21:53.818Z,98887.44
2023-01-09T14:24:25.824Z,98899.06
2023-01-09T14:26:57.278Z,98909.44
2023-01-09T14:29:47.592Z,98915.63
2023-01-09T14:32:47.174Z,98913.13
2023-01-09T14:35:26.776Z,98911.63
2023-01-09T14:38:06.406Z,98920.84
2023-01-09T14:40:37.240Z,98882.06
2023-01-09T14:43:16.740Z,98928.22
2023-01-09T14:45:50.050Z,98929.25
2023-01-09T14:48:18.751Z,98935.63
2023-01-09T14:50:51.298Z,98935.25
2023-01-09T14:53:24.692Z,98937.75
2023-01-09T14:56:02.525Z,98939.25
2023-01-09T14:58:32.868Z,98936.56
2023-01-09T15:01:04.309Z,98943.75
2023-01-09T15:03:36.028Z,98939.28
2023-01-09T15:06:05.610Z,98949.28
2023-01-09T15:08:35.314Z,98901.31
2023-01-09T15:11:03.994Z,98950.13
2023-01-09T15:13:38.884Z,98898.00
2023-01-09T15:16:16.118Z,98936.69
2023-01-09T15:18:44.680Z,98941.31
2023-01-09T15:21:21.221Z,98957.97
2023-01-09T15:23:51.046Z,98961.69
2023-01-09T15:26:27.331Z,98972.03
2023-01-09T15:29:02.710Z,98933.81
2023-01-09T15:31:32.518Z,98951.69
2023-01-09T15:34:00.672Z,98911.31
2023-01-09T15:36:31.165Z,98975.69
2023-01-09T15:39:01.451Z,98965.00
2023-01-09T15:42:03.408Z,98970.00
2023-01-09T15:44:36.330Z,98970.00
2023-01-09T15:47:07.082Z,98979.72
2023-01-09T15:49:37.695Z,98984.22
2023-01-09T15:52:08.724Z,98986.06
2023-01-09T15:54:38.894Z,98980.69
2023-01-09T15:57:34.105Z,98989.41
2023-01-09T16:00:32.237Z,98987.75
2023-01-09T16:03:20.727Z,98996.75
2023-01-09T16:05:53.702Z,98993.09
2023-01-09T16:08:24.858Z,98998.69
2023-01-09T16:10:57.542Z,98993.13
2023-01-09T16:13:27.995Z,98996.59
2023-01-09T16:15:57.503Z,98994.84
2023-01-09T16:18:34.597Z,98983.56
2023-01-09T16:21:21.064Z,99009.19
2023-01-09T16:23:57.367Z,99010.88
2023-01-09T16:26:29.859Z,99013.38
2023-01-09T16:28:58.106Z,99006.81
2023-01-09T16:31:29.916Z,99020.84
2023-01-09T16:34:01.829Z,99014.19
2023-01-09T16:36:30.229Z,99014.53
2023-01-09T16:39:01.054Z,99018.72
2023-01-09T16:41:48.764Z,99017.22
2023-01-09T16:44:19.275Z,99018.25
2023-01-09T16:46:47.559Z,99016.22
2023-01-09T16:49:19.361Z,99014.19
2023-01-09T16:51:48.206Z,99016.06
2023-01-09T16:54:16.799Z,99009.66
2023-01-09T16:56:49.727Z,99014.19
2023-01-09T16:59:21.709Z,99015.88
2023-01-09T17:01:50.085Z,99015.03
2023-01-09T17:04:20.188Z,99010.50
2023-01-09T17:06:50.575Z,98980.88
2023-01-09T17:09:22.289Z,99022.88
2023-01-09T17:11:51.819Z,98988.59
2023-01-09T17:14:20.039Z,98981.59
2023-01-09T17:16:48.653Z,99042.66
2023-01-09T17:19:20.061Z,99050.03
2023-01-09T17:21:48.602Z,99043.03
2023-01-09T17:24:34.400Z,99047.53
2023-01-09T17:27:21.782Z,99053.78
2023-01-09T17:29:50.225Z,99057.66
2023-01-09T17:32:19.784Z,99061.47
2023-01-09T17:34:47.999Z,99059.81
2023-01-09T17:37:17.191Z,99058.97
2023-01-09T17:39:45.958Z,99062.00
2023-01-09T17:42:15.617Z,99062.84
2023-01-09T17:44:44.177Z,99058.47
2023-01-09T17:47:16.097Z,99035.50
2023-01-09T17:49:44.609Z,99062.19
2023-01-09T17:52:12.772Z,99063.84
2023-01-09T17:54:41.020Z,99037.16
2023-01-09T17:57:11.927Z,99030.16
2023-01-09T17:59:41.620Z,99066.25
2023-01-09T18:02:17.373Z,99065.88
2023-01-09T18:04:46.896Z,99082.94
2023-01-09T18:07:16.484Z,99086.66
2023-01-09T18:09:45.063Z,99067.66
2023-01-09T18:12:13.289Z,99090.34
2023-01-09T18:14:43.085Z,99093.03
2023-01-09T18:17:13.500Z,99093.38
2023-01-09T18:19:41.811Z,99091.34
2023-01-09T18:22:10.091Z,99099.56
2023-01-09T18:24:38.288Z,99098.75
2023-01-09T18:27:06.482Z,99105.75
2023-01-09T18:29:34.560Z,99109.44
2023-01-09T18:32:04.205Z,99077.53
2023-01-09T18:34:32.371Z,99106.78
2023-01-09T18:37:00.708Z,99104.09
2023-01-09T18:39:28.979Z,99105.09
2023-01-09T18:41:57.287Z,99111.47
2023-01-09T18:44:26.190Z,99114.16
2023-01-09T18:46:54.649Z,99120.53
2023-01-09T18:49:24.209Z,99102.13
2023-01-09T18:51:52.275Z,99131.22
2023-01-09T18:54:20.359Z,99125.88
2023-01-09T18:56:48.493Z,99131.22
2023-01-09T18:59:16.629Z,99131.22
2023-01-09T19:01:44.742Z,99130.22
2023-01-09T19:04:12.930Z,99126.88
2023-01-09T19:06:42.586Z,99135.75
2023-01-09T19:09:12.290Z,99140.25
2023-01-09T19:11:40.373Z,99141.28
2023-01-09T19:14:08.443Z,99150.00
2023-01-09T19:16:36.594Z,99144.81
2023-01-09T19:19:06.592Z,99119.91
2023-01-09T19:21:34.824Z,99149.31
2023-01-09T19:24:04.473Z,99149.31
2023-01-09T19:26:32.608Z,99116.59
2023-01-09T19:29:01.033Z,99139.63
2023-01-09T19:31:30.289Z,99148.66
2023-01-09T19:33:58.754Z,99150.50
2023-01-09T19:36:27.420Z,99153.19
2023-01-09T19:38:58.071Z,99156.69
2023-01-09T19:41:27.964Z,99158.38
2023-01-09T19:43:56.391Z,99154.34
2023-01-09T19:46:26.366Z,99136.59
2023-01-09T19:48:54.900Z,99166.59
2023-01-09T19:51:23.674Z,99152.00
2023-01-09T19:53:53.969Z,99171.09
2023-01-09T19:56:23.794Z,99164.06
2023-01-09T19:58:55.447Z,99170.25
2023-01-09T20:01:24.983Z,99165.53
2023-01-09T20:03:54.770Z,99140.03
2023-01-09T20:06:25.228Z,99174.78
2023-01-09T20:08:56.106Z,99187.16
2023-01-09T20:11:25.731Z,99176.44
2023-01-09T20:13:55.736Z,99176.44
2023-01-09T20:16:28.449Z,99185.50
2023-01-09T20:18:58.063Z,99183.81
2023-01-09T20:21:27.812Z,99181.81
2023-01-09T20:23:57.856Z,99180.97
2023-01-09T20:26:26.169Z,99187.16
2023-01-09T20:28:56.438Z,99186.31
2023-01-09T20:31:28.600Z,99196.22
2023-01-09T20:33:59.124Z,99186.97
2023-01-09T20:36:30.108Z,99203.22
2023-01-09T20:38:59.373Z,99201.56
2023-01-09T20:41:29.510Z,99208.59
2023-01-09T20:44:01.422Z,99203.53
2023-01-09T20:46:31.959Z,99213.94
2023-01-09T20:49:03.098Z,99213.09
2023-01-09T20:51:32.150Z,99213.94
2023-01-09T20:54:00.190Z,99184.53
2023-01-09T20:56:29.558Z,99223.00
2023-01-09T20:59:03.136Z,99225.69
2023-01-09T21:01:31.366Z,99229.16
2023-01-09T21:04:00.647Z,99195.91
2023-01-09T21:06:29.354Z,99204.28
2023-01-09T21:08:57.503Z,99231.03
2023-01-09T21:11:25.747Z,99233.72
2023-01-09T21:13:54.325Z,99219.16
2023-01-09T21:16:25.803Z,99239.88
2023-01-09T21:18:56.457Z,99249.78
2023-01-09T21:21:27.542Z,99255.16
2023-01-09T21:23:57.504Z,99249.78
2023-01-09T21:26:29.110Z,99257.81
2023-01-09T21:28:59.306Z,99264.00
2023-01-09T21:31:34.628Z,99264.00
2023-01-09T21:34:04.682Z,99265.84
2023-01-09T21:36:34.699Z,99265.84
2023-01-09T21:39:02.801Z,99274.72
2023-01-09T21:41:48.399Z,99279.25
2023-01-09T21:44:34.113Z,99276.56
2023-01-09T21:47:04.421Z,99248.13
2023-01-09T21:49:35.168Z,99283.91
2023-01-09T21:52:04.803Z,99287.28
2023-01-09T21:54:33.661Z,99250.50
2023-01-09T21:57:02.295Z,99292.66
2023-01-09T21:59:30.652Z,99298.00
2023-01-09T22:01:58.969Z,99298.16
2023-01-09T22:04:30.594Z,99310.38
2023-01-09T22:06:58.748Z,99304.16
2023-01-09T22:09:27.119Z,99313.22
2023-01-09T22:11:55.205Z,99271.91
2023-01-09T22:14:23.398Z,99319.44
2023-01-09T22:16:51.524Z,99323.78
2023-01-09T22:19:19.697Z,99323.78
2023-01-09T22:21:49.395Z,99335.50
2023-01-09T22:24:19.081Z,99339.00
2023-01-09T22:26:47.806Z,99335.50
2023-01-09T22:29:17.235Z,99338.19
2023-01-09T22:31:45.463Z,99340.84
2023-01-09T22:34:16.305Z,99340.84
2023-01-09T22:36:45.347Z,99339.16
2023-01-09T22:39:17.363Z,99305.03
2023-01-09T22:41:45.732Z,99346.22
2023-01-09T22:44:14.566Z,99348.19
2023-01-09T22:46:42.678Z,99349.88
2023-01-09T22:49:12.246Z,99342.47
2023-01-09T22:51:40.485Z,99365.94
2023-01-09T22:54:08.710Z,99370.50
2023-01-09T22:56:38.220Z,99374.97
2023-01-09T22:59:06.359Z,99369.59
2023-01-09T23:01:34.466Z,99376.66
2023-01-09T23:04:03.753Z,99381.34
2023-01-09T23:06:32.101Z,99386.56
2023-01-09T23:09:00.423Z,99389.38
2023-01-09T23:11:47.990Z,99384.69
2023-01-09T23:14:17.782Z,99391.03
2023-01-09T23:16:46.086Z,99396.41
2023-01-09T23:19:15.840Z,99400.09
2023-01-09T23:21:45.667Z,99396.41
2023-01-09T23:24:15.704Z,99405.44
2023-01-09T23:26:44.797Z,99405.44
2023-01-09T23:29:13.516Z,99412.47
2023-01-09T23:31:43.074Z,99411.47
2023-01-09T23:34:15.680Z,99410.66
2023-01-09T23:36:43.985Z,99367.28
2023-01-09T23:39:12.181Z,99382.34
2023-01-09T23:41:58.417Z,99417.81
2023-01-09T23:44:26.643Z,99382.69
2023-01-09T23:46:56.316Z,99412.47
2023-01-09T23:49:24.433Z,99418.69
2023-01-09T23:51:52.559Z,99418.84
2023-01-09T23:54:20.699Z,99429.41
2023-01-09T23:56:48.900Z,99428.53
2023-01-09T23:59:18.111Z,99437.59
